KDYR  Dyersburg Regional Airport

Add Bookmark

Dyersburg, Tennessee, United States

Status Useage
Operational Public
Latitude Longitude
35° 59' 52" N 89° 24' 23" W
35.997972 -89.406583
Local (DST -5) UTC (GMT -6)
Dec 22, 2014 11:01 Dec 22, 2014 17:01
Sunrise-Sunset Local UTC
Begin Civil Twilight 06:35 12:35
Sunrise 07:03 13:03
Sunset 04:49 22:49
End Civil Twilight 05:18 23:18

Current Weather

METAR Observed IFR
KDYR 221655Z 15010G16KT 10SM OVC008 11/04 A2978 Mon, Dec 22, 2014 @ 16:55 UTC
(6 Minutes ago)
Instrument Flight Rules
Wind Visibility Clouds Conditions
150° at 10 knots (12 mph)
Gusting to 16 knots (18 mph)
10 statute miles
  • Overcast at 800' AGL
  • No significant weather
Temperatures Readings Precipitation
Current Temp 11°C (52°F)
Dewpoint 4°C (39°F)
Humidity 62%
Altimeter 29.78"Hg
Sea Level Pressure 1008mb
Field Elevation 337'
None Recorded

Additional weather within a 50nm radius of KDYR

Map ICAO Location
KHKA 20.9nm W (261°)
KBYH 26.2nm W (266°)
KUCY 30.7nm N (042°)
KMKL 33.8nm S (135°)
KNQA 44.6nm S (211°)

24 Hour Weather History

Loading
-

24 Hour Weather Graphs

Loading
-

CheckWX.com is intended as a tool to help pilots better visualize weather data. It is not intended as a substitute for an official weather briefing obtained from a Flight Service Station. CheckWX.com does not meet the FAA requirements for an official pre-flight weather briefing. Therefore, it's important that pilots still call and obtain an official FSS pre-flight weather briefing.